sensor_id;sensor_type;location;lat;lon;timestamp;temperature;humidity
43665;DHT22;29263;48.172;11.484;2023-11-19T00:02:08;4.90;99.90
43665;DHT22;29263;48.172;11.484;2023-11-19T00:04:36;4.90;99.90
43665;DHT22;29263;48.172;11.484;2023-11-19T00:07:03;5.00;99.90
43665;DHT22;29263;48.172;11.484;2023-11-19T00:09:30;5.00;99.90
43665;DHT22;29263;48.172;11.484;2023-11-19T00:11:57;5.00;99.90
43665;DHT22;29263;48.172;11.484;2023-11-19T00:14:23;5.00;99.90
43665;DHT22;29263;48.172;11.484;2023-11-19T00:16:49;5.10;99.90
43665;DHT22;29263;48.172;11.484;2023-11-19T00:19:16;5.10;99.90
43665;DHT22;29263;48.172;11.484;2023-11-19T00:21:42;5.10;99.90
43665;DHT22;29263;48.172;11.484;2023-11-19T00:24:08;5.10;99.90
43665;DHT22;29263;48.172;11.484;2023-11-19T00:26:34;5.10;99.90
43665;DHT22;29263;48.172;11.484;2023-11-19T00:28:59;5.10;99.90
43665;DHT22;29263;48.172;11.484;2023-11-19T00:31:25;5.20;99.90
43665;DHT22;29263;48.172;11.484;2023-11-19T00:33:54;5.20;99.90
43665;DHT22;29263;48.172;11.484;2023-11-19T00:36:19;5.20;99.90
43665;DHT22;29263;48.172;11.484;2023-11-19T00:38:45;5.20;99.90
43665;DHT22;29263;48.172;11.484;2023-11-19T00:41:11;5.20;99.90
43665;DHT22;29263;48.172;11.484;2023-11-19T00:43:37;5.30;99.90
43665;DHT22;29263;48.172;11.484;2023-11-19T00:46:03;5.20;99.90
43665;DHT22;29263;48.172;11.484;2023-11-19T00:48:29;5.20;99.90
43665;DHT22;29263;48.172;11.484;2023-11-19T00:50:55;5.20;99.90
43665;DHT22;29263;48.172;11.484;2023-11-19T00:53:20;5.30;99.90
43665;DHT22;29263;48.172;11.484;2023-11-19T00:55:46;5.30;99.90
43665;DHT22;29263;48.172;11.484;2023-11-19T00:58:11;5.30;99.90
43665;DHT22;29263;48.172;11.484;2023-11-19T01:00:37;5.30;99.90
43665;DHT22;29263;48.172;11.484;2023-11-19T01:03:03;5.30;99.90
43665;DHT22;29263;48.172;11.484;2023-11-19T01:05:28;5.30;99.90
43665;DHT22;29263;48.172;11.484;2023-11-19T01:07:54;5.30;99.90
43665;DHT22;29263;48.172;11.484;2023-11-19T01:10:20;5.40;99.90
43665;DHT22;29263;48.172;11.484;2023-11-19T01:12:46;5.40;99.90
43665;DHT22;29263;48.172;11.484;2023-11-19T01:15:12;5.40;99.90
43665;DHT22;29263;48.172;11.484;2023-11-19T01:17:38;5.50;99.90
43665;DHT22;29263;48.172;11.484;2023-11-19T01:20:05;5.50;99.90
43665;DHT22;29263;48.172;11.484;2023-11-19T01:22:32;5.50;99.90
43665;DHT22;29263;48.172;11.484;2023-11-19T01:24:57;5.60;99.90
43665;DHT22;29263;48.172;11.484;2023-11-19T01:27:24;5.60;99.90
43665;DHT22;29263;48.172;11.484;2023-11-19T01:29:50;5.60;99.90
43665;DHT22;29263;48.172;11.484;2023-11-19T01:32:15;5.70;99.90
43665;DHT22;29263;48.172;11.484;2023-11-19T01:34:41;5.70;99.90
43665;DHT22;29263;48.172;11.484;2023-11-19T01:37:07;5.80;99.90
43665;DHT22;29263;48.172;11.484;2023-11-19T01:39:35;5.80;99.90
43665;DHT22;29263;48.172;11.484;2023-11-19T01:42:01;5.80;99.90
43665;DHT22;29263;48.172;11.484;2023-11-19T01:44:27;5.90;99.90
43665;DHT22;29263;48.172;11.484;2023-11-19T01:46:52;5.90;99.90
43665;DHT22;29263;48.172;11.484;2023-11-19T01:49:19;6.00;99.90
43665;DHT22;29263;48.172;11.484;2023-11-19T01:51:46;6.00;99.90
43665;DHT22;29263;48.172;11.484;2023-11-19T01:54:13;6.00;99.90
43665;DHT22;29263;48.172;11.484;2023-11-19T01:56:41;6.10;99.90
43665;DHT22;29263;48.172;11.484;2023-11-19T01:59:08;6.20;99.90
43665;DHT22;29263;48.172;11.484;2023-11-19T02:01:35;6.30;99.90
43665;DHT22;29263;48.172;11.484;2023-11-19T02:04:05;6.30;99.90
43665;DHT22;29263;48.172;11.484;2023-11-19T02:06:33;6.30;99.90
43665;DHT22;29263;48.172;11.484;2023-11-19T02:08:59;6.30;99.90
43665;DHT22;29263;48.172;11.484;2023-11-19T02:11:26;6.40;99.90
43665;DHT22;29263;48.172;11.484;2023-11-19T02:13:57;6.40;99.90
43665;DHT22;29263;48.172;11.484;2023-11-19T02:16:23;6.40;99.90
43665;DHT22;29263;48.172;11.484;2023-11-19T02:18:48;6.50;99.90
43665;DHT22;29263;48.172;11.484;2023-11-19T02:21:14;6.50;99.90
43665;DHT22;29263;48.172;11.484;2023-11-19T02:23:40;6.50;99.90
43665;DHT22;29263;48.172;11.484;2023-11-19T02:26:13;6.50;99.90
43665;DHT22;29263;48.172;11.484;2023-11-19T02:28:41;6.60;99.90
43665;DHT22;29263;48.172;11.484;2023-11-19T02:31:07;6.60;99.90
43665;DHT22;29263;48.172;11.484;2023-11-19T02:33:37;6.60;99.90
43665;DHT22;29263;48.172;11.484;2023-11-19T02:36:07;6.60;99.90
43665;DHT22;29263;48.172;11.484;2023-11-19T02:38:34;6.70;99.90
43665;DHT22;29263;48.172;11.484;2023-11-19T02:41:03;6.70;99.90
43665;DHT22;29263;48.172;11.484;2023-11-19T02:43:30;6.70;99.90
43665;DHT22;29263;48.172;11.484;2023-11-19T02:46:00;6.70;99.90
43665;DHT22;29263;48.172;11.484;2023-11-19T02:48:26;6.80;99.90
43665;DHT22;29263;48.172;11.484;2023-11-19T02:50:51;6.80;99.90
43665;DHT22;29263;48.172;11.484;2023-11-19T02:53:17;6.80;99.90
43665;DHT22;29263;48.172;11.484;2023-11-19T02:55:43;6.90;99.90
43665;DHT22;29263;48.172;11.484;2023-11-19T02:58:14;7.00;99.90
43665;DHT22;29263;48.172;11.484;2023-11-19T03:00:50;7.10;99.90
43665;DHT22;29263;48.172;11.484;2023-11-19T03:03:24;7.20;99.90
43665;DHT22;29263;48.172;11.484;2023-11-19T03:05:54;7.30;99.90
43665;DHT22;29263;48.172;11.484;2023-11-19T03:08:20;7.40;99.90
43665;DHT22;29263;48.172;11.484;2023-11-19T03:10:47;7.50;99.90
43665;DHT22;29263;48.172;11.484;2023-11-19T03:13:14;7.60;99.90
43665;DHT22;29263;48.172;11.484;2023-11-19T03:15:40;7.60;99.90
43665;DHT22;29263;48.172;11.484;2023-11-19T03:18:06;7.70;99.90
43665;DHT22;29263;48.172;11.484;2023-11-19T03:20:31;7.70;99.90
43665;DHT22;29263;48.172;11.484;2023-11-19T03:22:57;7.80;99.90
43665;DHT22;29263;48.172;11.484;2023-11-19T03:25:25;7.80;99.90
43665;DHT22;29263;48.172;11.484;2023-11-19T03:27:52;7.90;99.90
43665;DHT22;29263;48.172;11.484;2023-11-19T03:30:18;8.00;99.90
43665;DHT22;29263;48.172;11.484;2023-11-19T03:32:46;8.10;99.90
43665;DHT22;29263;48.172;11.484;2023-11-19T03:35:11;8.10;99.90
43665;DHT22;29263;48.172;11.484;2023-11-19T03:37:37;8.20;99.90
43665;DHT22;29263;48.172;11.484;2023-11-19T03:40:05;8.20;99.90
43665;DHT22;29263;48.172;11.484;2023-11-19T03:42:31;8.20;99.90
43665;DHT22;29263;48.172;11.484;2023-11-19T03:44:57;8.30;99.90
43665;DHT22;29263;48.172;11.484;2023-11-19T03:47:23;8.30;99.90
43665;DHT22;29263;48.172;11.484;2023-11-19T03:49:49;8.40;99.90
43665;DHT22;29263;48.172;11.484;2023-11-19T03:52:16;8.50;99.90
43665;DHT22;29263;48.172;11.484;2023-11-19T03:54:41;8.60;99.90
43665;DHT22;29263;48.172;11.484;2023-11-19T03:57:07;8.60;99.90
43665;DHT22;29263;48.172;11.484;2023-11-19T03:59:33;8.60;99.90
43665;DHT22;29263;48.172;11.484;2023-11-19T04:01:59;8.70;99.90
43665;DHT22;29263;48.172;11.484;2023-11-19T04:04:26;8.70;99.90
43665;DHT22;29263;48.172;11.484;2023-11-19T04:06:53;8.90;99.90
43665;DHT22;29263;48.172;11.484;2023-11-19T04:09:19;9.00;99.90
43665;DHT22;29263;48.172;11.484;2023-11-19T04:11:45;9.00;99.90
43665;DHT22;29263;48.172;11.484;2023-11-19T04:14:15;9.10;99.90
43665;DHT22;29263;48.172;11.484;2023-11-19T04:16:43;9.10;99.90
43665;DHT22;29263;48.172;11.484;2023-11-19T04:19:09;9.10;99.90
43665;DHT22;29263;48.172;11.484;2023-11-19T04:21:35;9.10;99.90
43665;DHT22;29263;48.172;11.484;2023-11-19T04:24:00;9.20;99.90
43665;DHT22;29263;48.172;11.484;2023-11-19T04:26:26;9.20;99.90
43665;DHT22;29263;48.172;11.484;2023-11-19T04:28:51;9.20;99.90
43665;DHT22;29263;48.172;11.484;2023-11-19T04:31:17;9.30;99.90
43665;DHT22;29263;48.172;11.484;2023-11-19T04:33:43;9.30;99.90
43665;DHT22;29263;48.172;11.484;2023-11-19T04:36:12;9.40;99.90
43665;DHT22;29263;48.172;11.484;2023-11-19T04:38:39;9.40;99.90
43665;DHT22;29263;48.172;11.484;2023-11-19T04:41:06;9.50;99.90
43665;DHT22;29263;48.172;11.484;2023-11-19T04:43:32;9.50;99.90
43665;DHT22;29263;48.172;11.484;2023-11-19T04:45:58;9.50;99.90
43665;DHT22;29263;48.172;11.484;2023-11-19T04:48:24;9.60;99.90
43665;DHT22;29263;48.172;11.484;2023-11-19T04:50:50;9.60;99.90
43665;DHT22;29263;48.172;11.484;2023-11-19T04:53:18;9.60;99.90
43665;DHT22;29263;48.172;11.484;2023-11-19T04:55:44;9.60;99.90
43665;DHT22;29263;48.172;11.484;2023-11-19T04:58:10;9.60;99.90
43665;DHT22;29263;48.172;11.484;2023-11-19T05:00:35;9.70;99.90
43665;DHT22;29263;48.172;11.484;2023-11-19T05:03:01;9.70;99.90
43665;DHT22;29263;48.172;11.484;2023-11-19T05:05:27;9.70;99.90
43665;DHT22;29263;48.172;11.484;2023-11-19T05:07:52;9.70;99.90
43665;DHT22;29263;48.172;11.484;2023-11-19T05:10:18;9.70;99.90
43665;DHT22;29263;48.172;11.484;2023-11-19T05:12:44;9.70;99.90
43665;DHT22;29263;48.172;11.484;2023-11-19T05:15:10;9.70;99.90
43665;DHT22;29263;48.172;11.484;2023-11-19T05:17:37;9.80;99.90
43665;DHT22;29263;48.172;11.484;2023-11-19T05:20:03;9.80;99.90
43665;DHT22;29263;48.172;11.484;2023-11-19T05:22:29;9.70;99.90
43665;DHT22;29263;48.172;11.484;2023-11-19T05:24:54;9.70;99.90
43665;DHT22;29263;48.172;11.484;2023-11-19T05:27:21;9.70;99.90
43665;DHT22;29263;48.172;11.484;2023-11-19T05:29:47;9.80;99.90
43665;DHT22;29263;48.172;11.484;2023-11-19T05:32:13;9.80;99.90
43665;DHT22;29263;48.172;11.484;2023-11-19T05:34:38;9.80;99.90
43665;DHT22;29263;48.172;11.484;2023-11-19T05:37:04;9.80;99.90
43665;DHT22;29263;48.172;11.484;2023-11-19T05:39:31;9.80;99.90
43665;DHT22;29263;48.172;11.484;2023-11-19T05:41:56;9.80;99.90
43665;DHT22;29263;48.172;11.484;2023-11-19T05:44:22;9.70;99.90
43665;DHT22;29263;48.172;11.484;2023-11-19T05:46:47;9.70;99.90
43665;DHT22;29263;48.172;11.484;2023-11-19T05:49:13;9.70;99.90
43665;DHT22;29263;48.172;11.484;2023-11-19T05:51:39;9.80;99.90
43665;DHT22;29263;48.172;11.484;2023-11-19T05:54:07;9.70;99.90
43665;DHT22;29263;48.172;11.484;2023-11-19T05:56:33;9.70;99.90
43665;DHT22;29263;48.172;11.484;2023-11-19T05:58:59;9.80;99.90
43665;DHT22;29263;48.172;11.484;2023-11-19T06:01:35;9.80;99.90
43665;DHT22;29263;48.172;11.484;2023-11-19T06:04:01;9.70;99.90
43665;DHT22;29263;48.172;11.484;2023-11-19T06:06:27;9.80;99.90
43665;DHT22;29263;48.172;11.484;2023-11-19T06:08:53;9.80;99.90
43665;DHT22;29263;48.172;11.484;2023-11-19T06:11:19;9.80;99.90
43665;DHT22;29263;48.172;11.484;2023-11-19T06:13:46;9.80;99.90
43665;DHT22;29263;48.172;11.484;2023-11-19T06:16:13;9.80;99.90
43665;DHT22;29263;48.172;11.484;2023-11-19T06:18:39;9.80;99.90
43665;DHT22;29263;48.172;11.484;2023-11-19T06:21:06;9.80;99.90
43665;DHT22;29263;48.172;11.484;2023-11-19T06:23:32;9.80;99.90
43665;DHT22;29263;48.172;11.484;2023-11-19T06:25:58;9.80;99.90
43665;DHT22;29263;48.172;11.484;2023-11-19T06:28:24;9.90;99.90
43665;DHT22;29263;48.172;11.484;2023-11-19T06:30:50;9.80;99.90
43665;DHT22;29263;48.172;11.484;2023-11-19T06:33:16;9.90;99.90
43665;DHT22;29263;48.172;11.484;2023-11-19T06:35:41;9.90;99.90
43665;DHT22;29263;48.172;11.484;2023-11-19T06:38:07;9.90;99.90
43665;DHT22;29263;48.172;11.484;2023-11-19T06:40:33;9.90;99.90
43665;DHT22;29263;48.172;11.484;2023-11-19T06:43:00;9.90;99.90
43665;DHT22;29263;48.172;11.484;2023-11-19T06:45:28;9.90;99.90
43665;DHT22;29263;48.172;11.484;2023-11-19T06:47:53;10.00;99.90
43665;DHT22;29263;48.172;11.484;2023-11-19T06:50:19;10.00;99.90
43665;DHT22;29263;48.172;11.484;2023-11-19T06:52:45;10.00;99.90
43665;DHT22;29263;48.172;11.484;2023-11-19T06:55:11;10.10;99.90
43665;DHT22;29263;48.172;11.484;2023-11-19T06:57:36;10.10;99.90
43665;DHT22;29263;48.172;11.484;2023-11-19T07:00:03;10.10;99.90
43665;DHT22;29263;48.172;11.484;2023-11-19T07:02:31;10.10;99.90
43665;DHT22;29263;48.172;11.484;2023-11-19T07:04:56;10.20;99.90
43665;DHT22;29263;48.172;11.484;2023-11-19T07:07:22;10.20;99.90
43665;DHT22;29263;48.172;11.484;2023-11-19T07:09:48;10.20;99.90
43665;DHT22;29263;48.172;11.484;2023-11-19T07:12:13;10.20;99.90
43665;DHT22;29263;48.172;11.484;2023-11-19T07:14:40;10.20;99.90
43665;DHT22;29263;48.172;11.484;2023-11-19T07:17:07;10.20;99.90
43665;DHT22;29263;48.172;11.484;2023-11-19T07:19:34;10.20;99.90
43665;DHT22;29263;48.172;11.484;2023-11-19T07:22:01;10.30;99.90
43665;DHT22;29263;48.172;11.484;2023-11-19T07:24:27;10.30;99.90
43665;DHT22;29263;48.172;11.484;2023-11-19T07:26:54;10.30;99.90
43665;DHT22;29263;48.172;11.484;2023-11-19T07:29:20;10.30;99.90
43665;DHT22;29263;48.172;11.484;2023-11-19T07:31:48;10.30;99.90
43665;DHT22;29263;48.172;11.484;2023-11-19T07:34:14;10.40;99.90
43665;DHT22;29263;48.172;11.484;2023-11-19T07:36:39;10.40;99.90
43665;DHT22;29263;48.172;11.484;2023-11-19T07:39:06;10.40;99.90
43665;DHT22;29263;48.172;11.484;2023-11-19T07:41:32;10.50;99.90
43665;DHT22;29263;48.172;11.484;2023-11-19T07:43:57;10.50;99.90
43665;DHT22;29263;48.172;11.484;2023-11-19T07:46:23;10.50;99.90
43665;DHT22;29263;48.172;11.484;2023-11-19T07:48:50;10.50;99.90
43665;DHT22;29263;48.172;11.484;2023-11-19T07:51:16;10.50;99.90
43665;DHT22;29263;48.172;11.484;2023-11-19T07:53:42;10.40;99.90
43665;DHT22;29263;48.172;11.484;2023-11-19T07:56:08;10.50;99.90
43665;DHT22;29263;48.172;11.484;2023-11-19T07:58:34;10.50;99.90
43665;DHT22;29263;48.172;11.484;2023-11-19T08:01:00;10.60;99.90
43665;DHT22;29263;48.172;11.484;2023-11-19T08:03:27;10.60;99.90
43665;DHT22;29263;48.172;11.484;2023-11-19T08:05:55;10.60;99.90
43665;DHT22;29263;48.172;11.484;2023-11-19T08:08:21;10.60;99.90
43665;DHT22;29263;48.172;11.484;2023-11-19T08:10:47;10.70;99.90
43665;DHT22;29263;48.172;11.484;2023-11-19T08:13:13;10.70;99.90
43665;DHT22;29263;48.172;11.484;2023-11-19T08:15:39;10.80;99.90
43665;DHT22;29263;48.172;11.484;2023-11-19T08:18:05;10.80;99.90
43665;DHT22;29263;48.172;11.484;2023-11-19T08:20:32;10.90;99.90
43665;DHT22;29263;48.172;11.484;2023-11-19T08:22:58;10.90;99.90
43665;DHT22;29263;48.172;11.484;2023-11-19T08:25:23;10.90;99.90
43665;DHT22;29263;48.172;11.484;2023-11-19T08:27:49;10.90;99.90
43665;DHT22;29263;48.172;11.484;2023-11-19T08:30:15;10.90;99.90
43665;DHT22;29263;48.172;11.484;2023-11-19T08:32:40;10.90;99.90
43665;DHT22;29263;48.172;11.484;2023-11-19T08:35:07;10.90;99.90
43665;DHT22;29263;48.172;11.484;2023-11-19T08:37:32;11.00;99.90
43665;DHT22;29263;48.172;11.484;2023-11-19T08:39:58;11.00;99.90
43665;DHT22;29263;48.172;11.484;2023-11-19T08:42:24;11.10;99.90
43665;DHT22;29263;48.172;11.484;2023-11-19T08:44:50;11.00;99.90
43665;DHT22;29263;48.172;11.484;2023-11-19T08:47:16;11.10;99.90
43665;DHT22;29263;48.172;11.484;2023-11-19T08:49:45;11.10;99.90
43665;DHT22;29263;48.172;11.484;2023-11-19T08:52:11;11.20;99.90
43665;DHT22;29263;48.172;11.484;2023-11-19T08:54:37;11.20;99.90
43665;DHT22;29263;48.172;11.484;2023-11-19T08:57:03;11.20;99.90
43665;DHT22;29263;48.172;11.484;2023-11-19T08:59:29;11.20;99.90
43665;DHT22;29263;48.172;11.484;2023-11-19T09:01:55;11.20;99.90
43665;DHT22;29263;48.172;11.484;2023-11-19T09:04:21;11.30;99.90
43665;DHT22;29263;48.172;11.484;2023-11-19T09:06:48;11.30;99.90
43665;DHT22;29263;48.172;11.484;2023-11-19T09:09:14;11.40;99.90
43665;DHT22;29263;48.172;11.484;2023-11-19T09:11:40;11.40;99.90
43665;DHT22;29263;48.172;11.484;2023-11-19T09:14:05;11.40;99.90
43665;DHT22;29263;48.172;11.484;2023-11-19T09:16:31;11.40;99.90
43665;DHT22;29263;48.172;11.484;2023-11-19T09:18:57;11.40;99.90
43665;DHT22;29263;48.172;11.484;2023-11-19T09:21:27;11.50;99.90
43665;DHT22;29263;48.172;11.484;2023-11-19T09:23:55;11.50;99.90
43665;DHT22;29263;48.172;11.484;2023-11-19T09:26:20;11.60;99.90
43665;DHT22;29263;48.172;11.484;2023-11-19T09:28:46;11.60;99.90
43665;DHT22;29263;48.172;11.484;2023-11-19T09:31:18;11.70;99.90
43665;DHT22;29263;48.172;11.484;2023-11-19T09:33:44;11.70;99.90
43665;DHT22;29263;48.172;11.484;2023-11-19T09:36:13;11.90;99.90
43665;DHT22;29263;48.172;11.484;2023-11-19T09:38:40;11.90;99.90
43665;DHT22;29263;48.172;11.484;2023-11-19T09:41:06;12.00;99.90
43665;DHT22;29263;48.172;11.484;2023-11-19T09:43:34;11.90;99.90
43665;DHT22;29263;48.172;11.484;2023-11-19T09:46:05;11.90;99.90
43665;DHT22;29263;48.172;11.484;2023-11-19T09:48:33;11.90;99.90
43665;DHT22;29263;48.172;11.484;2023-11-19T09:51:01;11.90;99.90
43665;DHT22;29263;48.172;11.484;2023-11-19T09:53:27;11.80;99.90
43665;DHT22;29263;48.172;11.484;2023-11-19T09:55:53;11.90;99.90
43665;DHT22;29263;48.172;11.484;2023-11-19T09:58:20;11.90;99.90
43665;DHT22;29263;48.172;11.484;2023-11-19T10:00:47;12.00;99.90
43665;DHT22;29263;48.172;11.484;2023-11-19T10:03:14;12.10;99.90
43665;DHT22;29263;48.172;11.484;2023-11-19T10:05:39;12.10;99.90
43665;DHT22;29263;48.172;11.484;2023-11-19T10:08:06;12.20;99.90
43665;DHT22;29263;48.172;11.484;2023-11-19T10:10:32;12.30;99.90
43665;DHT22;29263;48.172;11.484;2023-11-19T10:16:20;12.50;99.90
43665;DHT22;29263;48.172;11.484;2023-11-19T10:22:11;12.50;99.90
43665;DHT22;29263;48.172;11.484;2023-11-19T10:25:00;12.60;99.90
43665;DHT22;29263;48.172;11.484;2023-11-19T10:27:50;12.70;99.90
43665;DHT22;29263;48.172;11.484;2023-11-19T10:30:34;12.90;99.90
43665;DHT22;29263;48.172;11.484;2023-11-19T10:35:57;13.20;99.90
43665;DHT22;29263;48.172;11.484;2023-11-19T10:38:23;13.20;99.90
43665;DHT22;29263;48.172;11.484;2023-11-19T10:40:49;13.20;99.90
43665;DHT22;29263;48.172;11.484;2023-11-19T10:43:21;13.20;99.90
43665;DHT22;29263;48.172;11.484;2023-11-19T10:46:11;13.20;99.90
43665;DHT22;29263;48.172;11.484;2023-11-19T10:48:42;13.30;99.90
43665;DHT22;29263;48.172;11.484;2023-11-19T10:51:08;13.40;99.90
43665;DHT22;29263;48.172;11.484;2023-11-19T10:53:37;13.50;99.90
43665;DHT22;29263;48.172;11.484;2023-11-19T10:59:39;13.60;99.90
43665;DHT22;29263;48.172;11.484;2023-11-19T11:02:34;13.60;99.90
43665;DHT22;29263;48.172;11.484;2023-11-19T11:05:05;13.50;99.90
43665;DHT22;29263;48.172;11.484;2023-11-19T11:10:43;13.60;99.90
43665;DHT22;29263;48.172;11.484;2023-11-19T11:13:31;13.60;99.90
43665;DHT22;29263;48.172;11.484;2023-11-19T11:16:00;13.60;99.90
43665;DHT22;29263;48.172;11.484;2023-11-19T11:18:31;13.60;99.90
43665;DHT22;29263;48.172;11.484;2023-11-19T11:38:08;13.80;99.90
43665;DHT22;29263;48.172;11.484;2023-11-19T11:44:12;14.00;99.90
43665;DHT22;29263;48.172;11.484;2023-11-19T11:46:53;13.90;99.90
43665;DHT22;29263;48.172;11.484;2023-11-19T11:49:25;13.90;99.90
43665;DHT22;29263;48.172;11.484;2023-11-19T11:55:13;14.00;99.90
43665;DHT22;29263;48.172;11.484;2023-11-19T11:57:39;14.00;99.90
43665;DHT22;29263;48.172;11.484;2023-11-19T12:00:10;14.10;99.90
43665;DHT22;29263;48.172;11.484;2023-11-19T12:02:36;14.00;99.90
43665;DHT22;29263;48.172;11.484;2023-11-19T12:11:32;14.10;99.90
43665;DHT22;29263;48.172;11.484;2023-11-19T12:14:03;14.10;99.90
43665;DHT22;29263;48.172;11.484;2023-11-19T12:16:30;14.10;99.90
43665;DHT22;29263;48.172;11.484;2023-11-19T12:18:56;14.20;99.90
43665;DHT22;29263;48.172;11.484;2023-11-19T12:21:32;14.20;99.90
43665;DHT22;29263;48.172;11.484;2023-11-19T12:23:59;14.20;99.90
43665;DHT22;29263;48.172;11.484;2023-11-19T12:26:37;14.30;99.90
43665;DHT22;29263;48.172;11.484;2023-11-19T12:29:03;14.50;99.90
43665;DHT22;29263;48.172;11.484;2023-11-19T12:31:29;14.60;99.90
43665;DHT22;29263;48.172;11.484;2023-11-19T12:34:07;14.70;99.90
43665;DHT22;29263;48.172;11.484;2023-11-19T12:36:38;14.60;99.90
43665;DHT22;29263;48.172;11.484;2023-11-19T12:39:03;14.60;99.90
43665;DHT22;29263;48.172;11.484;2023-11-19T12:41:29;14.50;99.90
43665;DHT22;29263;48.172;11.484;2023-11-19T12:44:09;14.50;99.90
43665;DHT22;29263;48.172;11.484;2023-11-19T12:46:34;14.60;99.90
43665;DHT22;29263;48.172;11.484;2023-11-19T12:49:00;14.60;99.90
43665;DHT22;29263;48.172;11.484;2023-11-19T12:51:31;14.60;99.90
43665;DHT22;29263;48.172;11.484;2023-11-19T12:54:06;14.60;99.90
43665;DHT22;29263;48.172;11.484;2023-11-19T12:56:32;14.60;99.90
43665;DHT22;29263;48.172;11.484;2023-11-19T12:59:10;14.60;99.90
43665;DHT22;29263;48.172;11.484;2023-11-19T13:04:40;14.70;99.90
43665;DHT22;29263;48.172;11.484;2023-11-19T13:07:06;14.70;99.90
43665;DHT22;29263;48.172;11.484;2023-11-19T13:09:31;14.70;99.90
43665;DHT22;29263;48.172;11.484;2023-11-19T13:11:57;14.70;99.90
43665;DHT22;29263;48.172;11.484;2023-11-19T13:14:36;14.70;99.90
43665;DHT22;29263;48.172;11.484;2023-11-19T13:17:05;14.70;99.90
43665;DHT22;29263;48.172;11.484;2023-11-19T13:19:31;14.70;99.90
43665;DHT22;29263;48.172;11.484;2023-11-19T13:21:56;14.70;99.90
43665;DHT22;29263;48.172;11.484;2023-11-19T13:24:22;14.70;99.90
43665;DHT22;29263;48.172;11.484;2023-11-19T13:26:48;14.70;99.90
43665;DHT22;29263;48.172;11.484;2023-11-19T13:29:13;14.70;99.90
43665;DHT22;29263;48.172;11.484;2023-11-19T13:31:39;14.70;99.90
43665;DHT22;29263;48.172;11.484;2023-11-19T13:34:05;14.60;99.90
43665;DHT22;29263;48.172;11.484;2023-11-19T13:36:35;14.50;99.90
43665;DHT22;29263;48.172;11.484;2023-11-19T13:39:07;14.40;99.90
43665;DHT22;29263;48.172;11.484;2023-11-19T13:45:18;14.20;99.90
43665;DHT22;29263;48.172;11.484;2023-11-19T13:50:44;14.10;99.90
43665;DHT22;29263;48.172;11.484;2023-11-19T13:53:13;14.10;99.90
43665;DHT22;29263;48.172;11.484;2023-11-19T13:55:43;14.00;99.90
43665;DHT22;29263;48.172;11.484;2023-11-19T13:58:09;14.00;99.90
43665;DHT22;29263;48.172;11.484;2023-11-19T14:00:35;13.90;99.90
43665;DHT22;29263;48.172;11.484;2023-11-19T14:03:01;13.90;99.90
43665;DHT22;29263;48.172;11.484;2023-11-19T14:05:27;14.00;99.90
43665;DHT22;29263;48.172;11.484;2023-11-19T14:07:53;13.90;99.90
43665;DHT22;29263;48.172;11.484;2023-11-19T14:10:24;14.00;99.90
43665;DHT22;29263;48.172;11.484;2023-11-19T14:12:50;13.90;99.90
43665;DHT22;29263;48.172;11.484;2023-11-19T14:15:19;13.90;99.90
43665;DHT22;29263;48.172;11.484;2023-11-19T14:17:45;13.90;99.90
43665;DHT22;29263;48.172;11.484;2023-11-19T14:20:10;13.90;99.90
43665;DHT22;29263;48.172;11.484;2023-11-19T14:22:41;13.90;99.90
43665;DHT22;29263;48.172;11.484;2023-11-19T14:25:08;13.80;99.90
43665;DHT22;29263;48.172;11.484;2023-11-19T14:27:44;13.80;99.90
43665;DHT22;29263;48.172;11.484;2023-11-19T14:30:12;13.90;99.90
43665;DHT22;29263;48.172;11.484;2023-11-19T14:32:50;13.90;99.90
43665;DHT22;29263;48.172;11.484;2023-11-19T14:36:04;13.90;99.90
43665;DHT22;29263;48.172;11.484;2023-11-19T14:39:19;13.80;99.90
43665;DHT22;29263;48.172;11.484;2023-11-19T14:44:56;13.70;99.90
43665;DHT22;29263;48.172;11.484;2023-11-19T14:47:55;13.60;99.90
43665;DHT22;29263;48.172;11.484;2023-11-19T14:50:26;13.70;99.90
43665;DHT22;29263;48.172;11.484;2023-11-19T14:56:43;13.60;99.90
43665;DHT22;29263;48.172;11.484;2023-11-19T14:59:32;13.50;99.90
43665;DHT22;29263;48.172;11.484;2023-11-19T15:02:22;13.40;99.90
43665;DHT22;29263;48.172;11.484;2023-11-19T15:04:48;13.30;99.90
43665;DHT22;29263;48.172;11.484;2023-11-19T15:07:17;13.30;99.90
43665;DHT22;29263;48.172;11.484;2023-11-19T15:09:43;13.20;99.90
43665;DHT22;29263;48.172;11.484;2023-11-19T15:12:11;13.20;99.90
43665;DHT22;29263;48.172;11.484;2023-11-19T15:14:37;13.20;99.90
43665;DHT22;29263;48.172;11.484;2023-11-19T15:17:03;13.20;99.90
43665;DHT22;29263;48.172;11.484;2023-11-19T15:19:30;13.20;99.90
43665;DHT22;29263;48.172;11.484;2023-11-19T15:21:56;13.10;99.90
43665;DHT22;29263;48.172;11.484;2023-11-19T15:24:22;13.10;99.90
43665;DHT22;29263;48.172;11.484;2023-11-19T15:26:48;13.10;99.90
43665;DHT22;29263;48.172;11.484;2023-11-19T15:29:14;13.00;99.90
43665;DHT22;29263;48.172;11.484;2023-11-19T15:31:39;13.00;99.90
43665;DHT22;29263;48.172;11.484;2023-11-19T15:34:06;12.90;99.90
43665;DHT22;29263;48.172;11.484;2023-11-19T15:36:32;12.80;99.90
43665;DHT22;29263;48.172;11.484;2023-11-19T15:42:07;12.80;99.90
43665;DHT22;29263;48.172;11.484;2023-11-19T15:44:32;12.80;99.90
43665;DHT22;29263;48.172;11.484;2023-11-19T15:47:01;12.70;99.90
43665;DHT22;29263;48.172;11.484;2023-11-19T15:50:00;12.70;99.90
43665;DHT22;29263;48.172;11.484;2023-11-19T15:52:29;12.70;99.90
43665;DHT22;29263;48.172;11.484;2023-11-19T15:54:56;12.70;99.90
43665;DHT22;29263;48.172;11.484;2023-11-19T15:57:22;12.60;99.90
43665;DHT22;29263;48.172;11.484;2023-11-19T15:59:48;12.60;99.90
43665;DHT22;29263;48.172;11.484;2023-11-19T16:04:57;12.60;99.90
43665;DHT22;29263;48.172;11.484;2023-11-19T16:07:29;12.60;99.90
43665;DHT22;29263;48.172;11.484;2023-11-19T16:09:55;12.60;99.90
43665;DHT22;29263;48.172;11.484;2023-11-19T16:12:21;12.60;99.90
43665;DHT22;29263;48.172;11.484;2023-11-19T16:14:51;12.50;99.90
43665;DHT22;29263;48.172;11.484;2023-11-19T16:17:17;12.60;99.90
43665;DHT22;29263;48.172;11.484;2023-11-19T16:19:49;12.60;99.90
43665;DHT22;29263;48.172;11.484;2023-11-19T16:22:17;12.60;99.90
43665;DHT22;29263;48.172;11.484;2023-11-19T16:24:43;12.60;99.90
43665;DHT22;29263;48.172;11.484;2023-11-19T16:27:09;12.50;99.90
43665;DHT22;29263;48.172;11.484;2023-11-19T16:29:35;12.40;99.90
43665;DHT22;29263;48.172;11.484;2023-11-19T16:32:04;12.40;99.90
43665;DHT22;29263;48.172;11.484;2023-11-19T16:34:30;12.30;99.90
43665;DHT22;29263;48.172;11.484;2023-11-19T16:36:55;12.30;99.90